Time,TemperatureF,DewpointF,PressureIn,WindDirection,WindDirectionDegrees,WindSpeedMPH,WindSpeedGustMPH,Humidity,HourlyPrecipIn,Conditions,Clouds,dailyrainin,SoftwareType,DateUTC
2013-04-06 00:03:00,29.0,11.0,-100.00,NNW,330,4.0,14.0,47,0.00,,,-99.99,,2013-04-06 04:03:00,
2013-04-06 00:14:00,29.0,11.0,-100.00,NW,315,5.0,18.0,46,0.00,,,-99.99,,2013-04-06 04:14:00,
2013-04-06 00:23:00,29.0,14.0,-100.00,NNW,335,4.0,9.0,52,0.00,,,-99.99,,2013-04-06 04:23:00,
2013-04-06 00:33:00,29.0,15.0,-100.00,North,355,5.0,11.0,56,0.00,,,-99.99,,2013-04-06 04:33:00,
2013-04-06 00:42:00,29.0,15.0,-100.00,NNW,345,4.0,11.0,56,0.00,,,-99.99,,2013-04-06 04:42:00,
2013-04-06 00:52:00,29.0,15.0,-100.00,North,0,3.0,7.0,55,0.00,,,-99.99,,2013-04-06 04:52:00,
2013-04-06 01:02:00,28.0,12.0,-100.00,NW,310,6.0,8.0,50,0.00,,,-99.99,,2013-04-06 05:02:00,
2013-04-06 01:13:00,28.0,12.0,-100.00,NW,325,7.0,14.0,49,0.00,,,-99.99,,2013-04-06 05:13:00,
2013-04-06 01:22:00,28.0,12.0,-100.00,NW,325,7.0,14.0,50,0.00,,,-99.99,,2013-04-06 05:22:00,
2013-04-06 01:32:00,28.0,13.0,-100.00,NW,320,6.0,14.0,52,0.00,,,-99.99,,2013-04-06 05:32:00,
2013-04-06 01:42:00,28.0,13.0,-100.00,NNW,330,10.0,20.0,53,0.00,,,-99.99,,2013-04-06 05:42:00,
2013-04-06 01:52:00,27.0,14.0,-100.00,North,350,12.0,17.0,57,0.00,,,-99.99,,2013-04-06 05:52:00,
2013-04-06 02:03:00,27.0,15.0,-100.00,WNW,285,4.0,14.0,60,0.01,,,-99.99,,2013-04-06 06:03:00,
2013-04-06 02:12:00,26.0,15.0,-100.00,NW,325,11.0,21.0,62,0.06,,,-99.99,,2013-04-06 06:12:00,
2013-04-06 02:22:00,26.0,18.0,-100.00,North,5,7.0,13.0,73,0.03,,,-99.99,,2013-04-06 06:22:00,
2013-04-06 02:32:00,25.0,18.0,-100.00,North,350,12.0,16.0,73,0.30,,,-99.99,,2013-04-06 06:32:00,
2013-04-06 02:42:00,24.0,20.0,-100.00,NNW,335,11.0,22.0,83,0.11,,,-99.99,,2013-04-06 06:42:00,
2013-04-06 02:52:00,24.0,17.0,-100.00,NNW,340,12.0,19.0,73,0.01,,,-99.99,,2013-04-06 06:52:00,
2013-04-06 03:03:00,24.0,17.0,-100.00,North,350,7.0,15.0,72,0.00,,,-99.99,,2013-04-06 07:03:00,
2013-04-06 03:12:00,24.0,15.0,-100.00,NNW,335,9.0,15.0,67,0.00,,,-99.99,,2013-04-06 07:12:00,
2013-04-06 03:22:00,23.0,16.0,-100.00,NNW,330,15.0,23.0,72,0.18,,,-99.99,,2013-04-06 07:22:00,
2013-04-06 03:33:00,23.0,17.0,-100.00,North,0,9.0,20.0,77,0.00,,,-99.99,,2013-04-06 07:33:00,
2013-04-06 03:43:00,23.0,15.0,-100.00,NNW,345,8.0,16.0,72,0.00,,,-99.99,,2013-04-06 07:43:00,
2013-04-06 03:52:00,23.0,12.0,-100.00,NNW,345,12.0,20.0,62,0.00,,,-99.99,,2013-04-06 07:52:00,
2013-04-06 04:02:00,23.0,8.0,-100.00,North,355,14.0,21.0,53,0.00,,,-99.99,,2013-04-06 08:02:00,
2013-04-06 04:13:00,22.0,7.0,-100.00,NNW,335,9.0,17.0,52,0.00,,,-99.99,,2013-04-06 08:13:00,
2013-04-06 04:22:00,22.0,7.0,-100.00,NW,305,7.0,17.0,52,0.00,,,-99.99,,2013-04-06 08:22:00,
2013-04-06 04:32:00,22.0,6.0,-100.00,NW,325,9.0,16.0,50,0.00,,,-99.99,,2013-04-06 08:32:00,
2013-04-06 04:42:00,22.0,3.0,-100.00,NNW,340,16.0,24.0,43,0.00,,,-99.99,,2013-04-06 08:42:00,
2013-04-06 04:52:00,21.0,2.0,-100.00,NW,320,13.0,21.0,43,0.00,,,-99.99,,2013-04-06 08:52:00,
2013-04-06 05:02:00,21.0,3.0,-100.00,NW,325,7.0,17.0,44,0.00,,,-99.99,,2013-04-06 09:02:00,
2013-04-06 05:12:00,21.0,3.0,-100.00,NNW,330,7.0,17.0,45,0.00,,,-99.99,,2013-04-06 09:12:00,
2013-04-06 05:22:00,21.0,3.0,-100.00,NNW,330,10.0,19.0,46,0.00,,,-99.99,,2013-04-06 09:22:00,
2013-04-06 05:33:00,20.0,4.0,-100.00,NNW,330,9.0,14.0,47,0.00,,,-99.99,,2013-04-06 09:33:00,
2013-04-06 05:43:00,20.0,3.0,-100.00,NW,325,9.0,19.0,46,0.00,,,-99.99,,2013-04-06 09:43:00,
2013-04-06 05:53:00,20.0,4.0,-100.00,NW,315,13.0,23.0,49,0.00,,,-99.99,,2013-04-06 09:53:00,
2013-04-06 06:03:00,20.0,5.0,-100.00,NNW,335,8.0,26.0,50,0.00,,,-99.99,,2013-04-06 10:03:00,
2013-04-06 06:13:00,20.0,2.0,-100.00,NW,325,17.0,24.0,45,0.00,,,-99.99,,2013-04-06 10:13:00,
2013-04-06 06:23:00,20.0,2.0,-100.00,NW,325,15.0,22.0,44,0.00,,,-99.99,,2013-04-06 10:23:00,
2013-04-06 06:33:00,20.0,1.0,-100.00,North,350,12.0,21.0,43,0.00,,,-99.99,,2013-04-06 10:33:00,
2013-04-06 06:42:00,20.0,1.0,-100.00,NNW,330,12.0,22.0,42,0.00,,,-99.99,,2013-04-06 10:42:00,
2013-04-06 06:52:00,20.0,2.0,-100.00,NNW,335,7.0,14.0,43,0.00,,,-99.99,,2013-04-06 10:52:00,
2013-04-06 07:03:00,20.0,-1.0,-100.00,NNW,340,12.0,19.0,40,0.00,,,-99.99,,2013-04-06 11:03:00,
2013-04-06 07:12:00,20.0,-1.0,-100.00,NNW,345,9.0,19.0,39,0.00,,,-99.99,,2013-04-06 11:12:00,
2013-04-06 07:23:00,20.0,-2.0,-100.00,NNW,345,14.0,21.0,36,0.00,,,-99.99,,2013-04-06 11:23:00,
2013-04-06 07:33:00,20.0,-3.0,-100.00,NNW,335,15.0,24.0,36,0.00,,,-99.99,,2013-04-06 11:33:00,
2013-04-06 07:43:00,20.0,-3.0,-100.00,NW,315,14.0,26.0,34,0.00,,,-99.99,,2013-04-06 11:43:00,
2013-04-06 07:52:00,20.0,-3.0,-100.00,NNW,340,10.0,18.0,34,0.00,,,-99.99,,2013-04-06 11:52:00,
2013-04-06 08:02:00,21.0,-2.0,-100.00,NNW,330,7.0,18.0,35,0.00,,,-99.99,,2013-04-06 12:02:00,
2013-04-06 08:12:00,20.0,-3.0,-100.00,NNW,340,14.0,29.0,34,0.00,,,-99.99,,2013-04-06 12:12:00,
2013-04-06 08:22:00,21.0,-3.0,-100.00,NNW,340,10.0,20.0,34,0.00,,,-99.99,,2013-04-06 12:22:00,
2013-04-06 08:33:00,21.0,-3.0,-100.00,NW,320,7.0,20.0,34,0.00,,,-99.99,,2013-04-06 12:33:00,
2013-04-06 08:43:00,21.0,-2.0,-100.00,NNW,340,6.0,22.0,35,0.00,,,-99.99,,2013-04-06 12:43:00,
2013-04-06 08:52:00,21.0,-2.0,-100.00,NNW,340,9.0,14.0,34,0.00,,,-99.99,,2013-04-06 12:52:00,
2013-04-06 09:03:00,21.0,-2.0,-100.00,North,350,11.0,20.0,35,0.00,,,-99.99,,2013-04-06 13:03:00,
2013-04-06 09:13:00,22.0,-1.0,-100.00,NW,325,9.0,19.0,37,0.00,,,-99.99,,2013-04-06 13:13:00,
2013-04-06 09:24:00,22.0,-2.0,-100.00,NNW,340,9.0,16.0,34,0.00,,,-99.99,,2013-04-06 13:24:00,
2013-04-06 09:32:00,23.0,-1.0,-100.00,NNW,335,12.0,18.0,34,0.00,,,-99.99,,2013-04-06 13:32:00,
2013-04-06 09:43:00,22.0,-1.0,-100.00,NNW,335,13.0,22.0,34,0.00,,,-99.99,,2013-04-06 13:43:00,
2013-04-06 09:52:00,23.0,0.0,-100.00,North,350,6.0,19.0,35,0.00,,,-99.99,,2013-04-06 13:52:00,
2013-04-06 10:04:00,23.0,-1.0,-100.00,North,10,8.0,16.0,34,0.00,,,-99.99,,2013-04-06 14:04:00,
2013-04-06 10:12:00,23.0,-1.0,-100.00,NNW,345,8.0,20.0,33,0.00,,,-99.99,,2013-04-06 14:12:00,
2013-04-06 10:22:00,24.0,0.0,-100.00,North,0,7.0,14.0,34,0.00,,,-99.99,,2013-04-06 14:22:00,
2013-04-06 10:33:00,24.0,0.0,-100.00,NNW,340,6.0,15.0,33,0.00,,,-99.99,,2013-04-06 14:33:00,
2013-04-06 10:42:00,24.0,0.0,-100.00,NNW,340,6.0,18.0,33,0.00,,,-99.99,,2013-04-06 14:42:00,
2013-04-06 10:52:00,24.0,-1.0,-100.00,NNW,345,8.0,16.0,32,0.00,,,-99.99,,2013-04-06 14:52:00,
2013-04-06 11:02:00,24.0,0.0,-100.00,North,5,6.0,16.0,33,0.00,,,-99.99,,2013-04-06 15:02:00,
2013-04-06 11:12:00,26.0,0.0,-100.00,NNW,330,6.0,17.0,32,0.00,,,-99.99,,2013-04-06 15:12:00,
2013-04-06 11:23:00,26.0,1.0,-100.00,NW,305,4.0,11.0,32,0.00,,,-99.99,,2013-04-06 15:23:00,
2013-04-06 11:33:00,27.0,-1.0,-100.00,NW,325,9.0,19.0,30,0.00,,,-99.99,,2013-04-06 15:33:00,
2013-04-06 11:43:00,26.0,-1.0,-100.00,NW,325,7.0,21.0,29,0.00,,,-99.99,,2013-04-06 15:43:00,
2013-04-06 11:52:00,27.0,0.0,-100.00,North,355,6.0,17.0,31,0.00,,,-99.99,,2013-04-06 15:52:00,
2013-04-06 12:05:00,27.0,0.0,-100.00,NW,305,10.0,20.0,30,0.00,,,-99.99,,2013-04-06 16:05:00,
2013-04-06 12:17:00,27.0,-2.0,-100.00,NNW,335,13.0,19.0,27,0.00,,,-99.99,,2013-04-06 16:17:00,
2013-04-06 12:23:00,28.0,-2.0,-100.00,North,350,8.0,22.0,26,0.00,,,-99.99,,2013-04-06 16:23:00,
2013-04-06 12:33:00,28.0,-2.0,-100.00,NW,320,13.0,18.0,26,0.00,,,-99.99,,2013-04-06 16:33:00,
2013-04-06 12:42:00,28.0,-2.0,-100.00,North,0,9.0,18.0,26,0.00,,,-99.99,,2013-04-06 16:42:00,
2013-04-06 12:53:00,30.0,-2.0,-100.00,NNW,335,9.0,17.0,23,0.00,,,-99.99,,2013-04-06 16:53:00,
2013-04-06 13:03:00,29.0,-3.0,-100.00,NNW,335,11.0,17.0,24,0.00,,,-99.99,,2013-04-06 17:03:00,
2013-04-06 13:12:00,29.0,-5.0,-100.00,NNW,330,14.0,22.0,23,0.00,,,-99.99,,2013-04-06 17:12:00,
2013-04-06 13:22:00,30.0,-3.0,-100.00,NNW,345,7.0,21.0,22,0.00,,,-99.99,,2013-04-06 17:22:00,
2013-04-06 13:32:00,30.0,-2.0,-100.00,NNW,340,6.0,16.0,25,0.00,,,-99.99,,2013-04-06 17:32:00,
2013-04-06 13:42:00,30.0,-1.0,-100.00,NW,320,7.0,16.0,26,0.00,,,-99.99,,2013-04-06 17:42:00,
2013-04-06 13:52:00,29.0,-3.0,-100.00,NNW,340,12.0,20.0,23,0.00,,,-99.99,,2013-04-06 17:52:00,
2013-04-06 14:03:00,30.0,-3.0,-100.00,NNW,335,10.0,22.0,23,0.00,,,-99.99,,2013-04-06 18:03:00,
2013-04-06 14:12:00,31.0,-3.0,-100.00,NNW,340,9.0,17.0,22,0.00,,,-99.99,,2013-04-06 18:12:00,
2013-04-06 14:23:00,31.0,-4.0,-100.00,NNW,340,12.0,19.0,21,0.00,,,-99.99,,2013-04-06 18:23:00,
2013-04-06 14:32:00,32.0,-3.0,-100.00,NNW,340,13.0,21.0,21,0.00,,,-99.99,,2013-04-06 18:32:00,
2013-04-06 14:42:00,31.0,-4.0,-100.00,NNW,330,9.0,21.0,21,0.00,,,-99.99,,2013-04-06 18:42:00,
2013-04-06 14:52:00,31.0,-3.0,-100.00,NNW,340,8.0,17.0,21,0.00,,,-99.99,,2013-04-06 18:52:00,
2013-04-06 15:03:00,32.0,0.0,-100.00,WNW,300,7.0,11.0,24,0.00,,,-99.99,,2013-04-06 19:03:00,
2013-04-06 15:12:00,33.0,2.0,-100.00,WNW,295,6.0,16.0,26,0.00,,,-99.99,,2013-04-06 19:12:00,
2013-04-06 15:23:00,33.0,-1.0,-100.00,NW,305,6.0,13.0,23,0.00,,,-99.99,,2013-04-06 19:23:00,
2013-04-06 15:33:00,33.0,-3.0,-100.00,NNW,335,8.0,15.0,21,0.00,,,-99.99,,2013-04-06 19:33:00,
2013-04-06 15:42:00,33.0,-2.0,-100.00,West,280,7.0,17.0,21,0.00,,,-99.99,,2013-04-06 19:42:00,
2013-04-06 15:53:00,33.0,-3.0,-100.00,NNW,340,11.0,18.0,21,0.00,,,-99.99,,2013-04-06 19:53:00,
2013-04-06 16:03:00,33.0,-2.0,-100.00,NNW,330,8.0,14.0,21,0.00,,,-99.99,,2013-04-06 20:03:00,
2013-04-06 16:12:00,33.0,-3.0,-100.00,NW,325,10.0,17.0,20,0.00,,,-99.99,,2013-04-06 20:12:00,
2013-04-06 16:22:00,33.0,-2.0,-100.00,NNW,335,12.0,17.0,21,0.00,,,-99.99,,2013-04-06 20:22:00,
2013-04-06 16:32:00,34.0,-2.0,-100.00,NNW,335,7.0,17.0,20,0.00,,,-99.99,,2013-04-06 20:32:00,
2013-04-06 16:42:00,35.0,-2.0,-100.00,NW,325,4.0,11.0,20,0.00,,,-99.99,,2013-04-06 20:42:00,
2013-04-06 16:52:00,34.0,-1.0,-100.00,NW,310,7.0,16.0,21,0.00,,,-99.99,,2013-04-06 20:52:00,
2013-04-06 17:02:00,34.0,-1.0,-100.00,West,270,2.0,14.0,21,0.00,,,-99.99,,2013-04-06 21:02:00,
2013-04-06 17:13:00,34.0,-3.0,-100.00,NNW,345,4.0,13.0,20,0.00,,,-99.99,,2013-04-06 21:13:00,
2013-04-06 17:22:00,34.0,-3.0,-100.00,North,5,3.0,15.0,20,0.00,,,-99.99,,2013-04-06 21:22:00,
2013-04-06 17:33:00,35.0,-1.0,-100.00,NW,310,4.0,7.0,21,0.00,,,-99.99,,2013-04-06 21:33:00,
2013-04-06 17:43:00,34.0,-1.0,-100.00,NNW,345,9.0,14.0,21,0.00,,,-99.99,,2013-04-06 21:43:00,
2013-04-06 17:52:00,34.0,-2.0,-100.00,NW,325,8.0,15.0,21,0.00,,,-99.99,,2013-04-06 21:52:00,
2013-04-06 18:03:00,35.0,-1.0,-100.00,West,275,3.0,11.0,21,0.00,,,-99.99,,2013-04-06 22:03:00,
2013-04-06 18:13:00,35.0,-1.0,-100.00,West,275,2.0,11.0,20,0.00,,,-99.99,,2013-04-06 22:13:00,
2013-04-06 18:23:00,34.0,-3.0,-100.00,NW,315,7.0,11.0,19,0.00,,,-99.99,,2013-04-06 22:23:00,
2013-04-06 18:35:00,34.0,-3.0,-100.00,NW,325,6.0,10.0,19,0.00,,,-99.99,,2013-04-06 22:35:00,
2013-04-06 18:43:00,34.0,0.0,-100.00,WNW,290,4.0,10.0,23,0.00,,,-99.99,,2013-04-06 22:43:00,
2013-04-06 18:53:00,34.0,-1.0,-100.00,WNW,295,2.0,6.0,22,0.00,,,-99.99,,2013-04-06 22:53:00,
2013-04-06 19:03:00,33.0,0.0,-100.00,West,270,2.0,9.0,22,0.00,,,-99.99,,2013-04-06 23:03:00,
2013-04-06 19:23:00,32.0,-1.0,-100.00,NW,320,4.0,11.0,22,0.00,,,-99.99,,2013-04-06 23:23:00,
2013-04-06 19:34:00,32.0,-2.0,-100.00,NW,325,5.0,12.0,22,0.00,,,-99.99,,2013-04-06 23:34:00,
2013-04-06 19:42:00,32.0,-1.0,-100.00,WNW,295,2.0,5.0,23,0.00,,,-99.99,,2013-04-06 23:42:00,
2013-04-06 19:52:00,31.0,0.0,-100.00,NW,305,1.0,5.0,25,0.00,,,-99.99,,2013-04-06 23:52:00,
2013-04-06 20:02:00,30.0,1.0,-100.00,North,5,0.0,4.0,28,0.00,,,-99.99,,2013-04-07 00:02:00,
2013-04-06 20:13:00,29.0,2.0,-100.00,SW,230,1.0,3.0,30,0.00,,,-99.99,,2013-04-07 00:13:00,
2013-04-06 20:22:00,28.0,4.0,-100.00,WSW,255,1.0,1.0,34,0.00,,,-99.99,,2013-04-07 00:22:00,
2013-04-06 20:33:00,28.0,3.0,-100.00,South,175,1.0,2.0,33,0.00,,,-99.99,,2013-04-07 00:33:00,
2013-04-06 20:43:00,28.0,4.0,-100.00,South,180,2.0,4.0,34,0.00,,,-99.99,,2013-04-07 00:43:00,
2013-04-06 20:52:00,28.0,5.0,-100.00,SW,225,1.0,2.0,35,0.00,,,-99.99,,2013-04-07 00:52:00,
2013-04-06 21:02:00,27.0,5.0,-100.00,WSW,250,1.0,1.0,37,0.00,,,-99.99,,2013-04-07 01:02:00,
2013-04-06 21:12:00,27.0,6.0,-100.00,SW,215,1.0,1.0,41,0.00,,,-99.99,,2013-04-07 01:12:00,
2013-04-06 21:23:00,27.0,6.0,-100.00,SW,225,1.0,1.0,40,0.00,,,-99.99,,2013-04-07 01:23:00,
2013-04-06 21:32:00,26.0,7.0,-100.00,SW,235,1.0,1.0,42,0.00,,,-99.99,,2013-04-07 01:32:00,
2013-04-06 21:43:00,26.0,5.0,-100.00,NNE,30,1.0,1.0,39,0.00,,,-99.99,,2013-04-07 01:43:00,
2013-04-06 21:52:00,26.0,7.0,-100.00,WNW,285,0.0,1.0,44,0.00,,,-99.99,,2013-04-07 01:52:00,
2013-04-06 22:03:00,25.0,7.0,-100.00,SW,235,1.0,1.0,45,0.00,,,-99.99,,2013-04-07 02:03:00,
2013-04-06 22:12:00,24.0,6.0,-100.00,South,175,1.0,1.0,43,0.00,,,-99.99,,2013-04-07 02:12:00,
2013-04-06 22:23:00,25.0,7.0,-100.00,WNW,285,1.0,1.0,45,0.00,,,-99.99,,2013-04-07 02:23:00,
2013-04-06 22:32:00,24.0,6.0,-100.00,SW,235,1.0,1.0,45,0.00,,,-99.99,,2013-04-07 02:32:00,
2013-04-06 22:43:00,24.0,8.0,-100.00,West,280,1.0,1.0,48,0.00,,,-99.99,,2013-04-07 02:43:00,
2013-04-06 22:52:00,24.0,9.0,-100.00,WSW,255,1.0,1.0,52,0.00,,,-99.99,,2013-04-07 02:52:00,
2013-04-06 23:02:00,24.0,7.0,-100.00,SSE,150,0.0,1.0,46,0.00,,,-99.99,,2013-04-07 03:02:00,
2013-04-06 23:12:00,24.0,9.0,-100.00,West,265,1.0,1.0,53,0.00,,,-99.99,,2013-04-07 03:12:00,
2013-04-06 23:22:00,24.0,8.0,-100.00,WSW,240,1.0,1.0,50,0.00,,,-99.99,,2013-04-07 03:22:00,
2013-04-06 23:35:00,24.0,9.0,-100.00,WSW,255,1.0,1.0,52,0.00,,,-99.99,,2013-04-07 03:35:00,
2013-04-06 23:43:00,24.0,10.0,-100.00,WSW,245,0.0,1.0,53,0.00,,,-99.99,,2013-04-07 03:43:00,
2013-04-06 23:53:00,25.0,11.0,-100.00,West,270,0.0,1.0,54,0.00,,,-99.99,,2013-04-07 03:53:00,